sensor_id;sensor_type;location;lat;lon;timestamp;temperature;humidity
40516;DHT22;26216;53.724;9.898;2023-04-01T00:01:44;13.10;99.90
40516;DHT22;26216;53.724;9.898;2023-04-01T00:04:15;13.00;99.90
40516;DHT22;26216;53.724;9.898;2023-04-01T00:06:54;13.10;99.90
40516;DHT22;26216;53.724;9.898;2023-04-01T00:09:27;13.10;99.90
40516;DHT22;26216;53.724;9.898;2023-04-01T00:11:53;13.00;99.90
40516;DHT22;26216;53.724;9.898;2023-04-01T00:14:26;13.00;99.90
40516;DHT22;26216;53.724;9.898;2023-04-01T00:17:13;13.00;99.90
40516;DHT22;26216;53.724;9.898;2023-04-01T00:19:39;13.00;99.90
40516;DHT22;26216;53.724;9.898;2023-04-01T00:22:04;13.00;99.90
40516;DHT22;26216;53.724;9.898;2023-04-01T00:24:31;13.00;99.90
40516;DHT22;26216;53.724;9.898;2023-04-01T00:26:57;13.00;99.90
40516;DHT22;26216;53.724;9.898;2023-04-01T00:29:23;13.00;99.90
40516;DHT22;26216;53.724;9.898;2023-04-01T00:31:58;13.10;99.90
40516;DHT22;26216;53.724;9.898;2023-04-01T00:34:24;13.00;99.90
40516;DHT22;26216;53.724;9.898;2023-04-01T00:36:54;13.10;99.90
40516;DHT22;26216;53.724;9.898;2023-04-01T00:39:20;13.00;99.90
40516;DHT22;26216;53.724;9.898;2023-04-01T00:41:50;13.10;99.90
40516;DHT22;26216;53.724;9.898;2023-04-01T00:44:24;13.10;99.90
40516;DHT22;26216;53.724;9.898;2023-04-01T00:46:50;13.10;99.90
40516;DHT22;26216;53.724;9.898;2023-04-01T00:49:20;13.10;99.90
40516;DHT22;26216;53.724;9.898;2023-04-01T00:51:52;13.00;99.90
40516;DHT22;26216;53.724;9.898;2023-04-01T00:54:38;13.10;99.90
40516;DHT22;26216;53.724;9.898;2023-04-01T00:57:50;13.10;99.90
40516;DHT22;26216;53.724;9.898;2023-04-01T00:59:57;13.10;99.90
40516;DHT22;26216;53.724;9.898;2023-04-01T01:02:23;13.10;99.90
40516;DHT22;26216;53.724;9.898;2023-04-01T01:04:52;13.10;99.90
40516;DHT22;26216;53.724;9.898;2023-04-01T01:18:07;13.10;99.90
40516;DHT22;26216;53.724;9.898;2023-04-01T01:29:07;13.10;99.90
40516;DHT22;26216;53.724;9.898;2023-04-01T01:32:16;13.10;99.90
40516;DHT22;26216;53.724;9.898;2023-04-01T01:35:02;13.10;99.90
40516;DHT22;26216;53.724;9.898;2023-04-01T01:37:32;13.10;99.90
40516;DHT22;26216;53.724;9.898;2023-04-01T01:40:03;13.10;99.90
40516;DHT22;26216;53.724;9.898;2023-04-01T01:42:31;13.10;99.90
40516;DHT22;26216;53.724;9.898;2023-04-01T01:44:59;13.10;99.90
40516;DHT22;26216;53.724;9.898;2023-04-01T01:47:27;13.10;99.90
40516;DHT22;26216;53.724;9.898;2023-04-01T01:49:55;13.00;99.90
40516;DHT22;26216;53.724;9.898;2023-04-01T01:52:24;13.10;99.90
40516;DHT22;26216;53.724;9.898;2023-04-01T01:54:57;13.00;99.90
40516;DHT22;26216;53.724;9.898;2023-04-01T01:57:34;13.00;99.90
40516;DHT22;26216;53.724;9.898;2023-04-01T02:00:07;13.00;99.90
40516;DHT22;26216;53.724;9.898;2023-04-01T02:02:44;13.10;99.90
40516;DHT22;26216;53.724;9.898;2023-04-01T02:05:20;13.00;99.90
40516;DHT22;26216;53.724;9.898;2023-04-01T02:07:52;13.00;99.90
40516;DHT22;26216;53.724;9.898;2023-04-01T02:10:22;13.10;99.90
40516;DHT22;26216;53.724;9.898;2023-04-01T02:12:51;13.00;99.90
40516;DHT22;26216;53.724;9.898;2023-04-01T02:15:19;13.00;99.90
40516;DHT22;26216;53.724;9.898;2023-04-01T02:17:47;13.00;99.90
40516;DHT22;26216;53.724;9.898;2023-04-01T02:20:20;13.10;99.90
40516;DHT22;26216;53.724;9.898;2023-04-01T02:22:51;13.00;99.90
40516;DHT22;26216;53.724;9.898;2023-04-01T02:25:22;13.00;99.90
40516;DHT22;26216;53.724;9.898;2023-04-01T02:27:49;13.00;99.90
40516;DHT22;26216;53.724;9.898;2023-04-01T02:30:18;13.00;99.90
40516;DHT22;26216;53.724;9.898;2023-04-01T02:32:46;13.00;99.90
40516;DHT22;26216;53.724;9.898;2023-04-01T02:35:16;13.00;99.90
40516;DHT22;26216;53.724;9.898;2023-04-01T02:37:44;13.00;99.90
40516;DHT22;26216;53.724;9.898;2023-04-01T02:40:13;13.00;99.90
40516;DHT22;26216;53.724;9.898;2023-04-01T02:42:39;13.00;99.90
40516;DHT22;26216;53.724;9.898;2023-04-01T02:45:09;12.90;99.90
40516;DHT22;26216;53.724;9.898;2023-04-01T02:47:35;13.00;99.90
40516;DHT22;26216;53.724;9.898;2023-04-01T02:50:01;12.90;99.90
40516;DHT22;26216;53.724;9.898;2023-04-01T02:52:30;12.90;99.90
40516;DHT22;26216;53.724;9.898;2023-04-01T02:54:57;13.00;99.90
40516;DHT22;26216;53.724;9.898;2023-04-01T02:57:23;12.90;99.90
40516;DHT22;26216;53.724;9.898;2023-04-01T02:59:52;12.90;99.90
40516;DHT22;26216;53.724;9.898;2023-04-01T03:02:27;12.90;99.90
40516;DHT22;26216;53.724;9.898;2023-04-01T03:04:53;12.90;99.90
40516;DHT22;26216;53.724;9.898;2023-04-01T03:07:19;12.90;99.90
40516;DHT22;26216;53.724;9.898;2023-04-01T03:09:45;12.90;99.90
40516;DHT22;26216;53.724;9.898;2023-04-01T03:12:11;12.90;99.90
40516;DHT22;26216;53.724;9.898;2023-04-01T03:14:37;12.90;99.90
40516;DHT22;26216;53.724;9.898;2023-04-01T03:17:03;12.90;99.90
40516;DHT22;26216;53.724;9.898;2023-04-01T03:19:29;12.80;99.90
40516;DHT22;26216;53.724;9.898;2023-04-01T03:21:55;12.90;99.90
40516;DHT22;26216;53.724;9.898;2023-04-01T03:24:20;12.90;99.90
40516;DHT22;26216;53.724;9.898;2023-04-01T03:26:49;12.80;99.90
40516;DHT22;26216;53.724;9.898;2023-04-01T03:29:15;12.80;99.90
40516;DHT22;26216;53.724;9.898;2023-04-01T03:31:41;12.80;99.90
40516;DHT22;26216;53.724;9.898;2023-04-01T03:34:10;12.80;99.90
40516;DHT22;26216;53.724;9.898;2023-04-01T03:36:36;12.80;99.90
40516;DHT22;26216;53.724;9.898;2023-04-01T03:39:08;12.80;99.90
40516;DHT22;26216;53.724;9.898;2023-04-01T03:41:36;12.80;99.90
40516;DHT22;26216;53.724;9.898;2023-04-01T03:44:03;12.80;99.90
40516;DHT22;26216;53.724;9.898;2023-04-01T03:46:29;12.80;99.90
40516;DHT22;26216;53.724;9.898;2023-04-01T03:48:58;12.80;99.90
40516;DHT22;26216;53.724;9.898;2023-04-01T03:51:24;12.80;99.90
40516;DHT22;26216;53.724;9.898;2023-04-01T03:53:55;12.70;99.90
40516;DHT22;26216;53.724;9.898;2023-04-01T03:56:30;12.70;99.90
40516;DHT22;26216;53.724;9.898;2023-04-01T03:58:56;12.70;99.90
40516;DHT22;26216;53.724;9.898;2023-04-01T04:01:22;12.70;99.90
40516;DHT22;26216;53.724;9.898;2023-04-01T04:03:49;12.60;99.90
40516;DHT22;26216;53.724;9.898;2023-04-01T04:06:22;12.50;99.90
40516;DHT22;26216;53.724;9.898;2023-04-01T04:08:51;12.50;99.90
40516;DHT22;26216;53.724;9.898;2023-04-01T04:11:19;12.40;99.90
40516;DHT22;26216;53.724;9.898;2023-04-01T04:13:51;12.30;99.90
40516;DHT22;26216;53.724;9.898;2023-04-01T04:16:18;12.20;99.90
40516;DHT22;26216;53.724;9.898;2023-04-01T04:18:44;12.10;99.90
40516;DHT22;26216;53.724;9.898;2023-04-01T04:21:14;12.00;99.90
40516;DHT22;26216;53.724;9.898;2023-04-01T04:23:41;12.00;99.90
40516;DHT22;26216;53.724;9.898;2023-04-01T04:26:12;11.90;99.90
40516;DHT22;26216;53.724;9.898;2023-04-01T04:28:41;11.80;99.90
40516;DHT22;26216;53.724;9.898;2023-04-01T04:31:07;11.70;99.90
40516;DHT22;26216;53.724;9.898;2023-04-01T04:33:34;11.60;99.90
40516;DHT22;26216;53.724;9.898;2023-04-01T04:36:03;11.60;99.90
40516;DHT22;26216;53.724;9.898;2023-04-01T04:38:29;11.50;99.90
40516;DHT22;26216;53.724;9.898;2023-04-01T04:40:58;11.40;99.90
40516;DHT22;26216;53.724;9.898;2023-04-01T04:43:24;11.30;99.90
40516;DHT22;26216;53.724;9.898;2023-04-01T04:45:55;11.30;99.90
40516;DHT22;26216;53.724;9.898;2023-04-01T04:48:21;11.30;99.90
40516;DHT22;26216;53.724;9.898;2023-04-01T04:50:50;11.20;99.90
40516;DHT22;26216;53.724;9.898;2023-04-01T04:53:31;11.20;99.90
40516;DHT22;26216;53.724;9.898;2023-04-01T04:56:02;11.10;99.90
40516;DHT22;26216;53.724;9.898;2023-04-01T04:58:31;11.10;99.90
40516;DHT22;26216;53.724;9.898;2023-04-01T05:00:57;11.00;99.90
40516;DHT22;26216;53.724;9.898;2023-04-01T05:03:33;11.00;99.90
40516;DHT22;26216;53.724;9.898;2023-04-01T05:06:10;10.90;99.90
40516;DHT22;26216;53.724;9.898;2023-04-01T05:08:42;10.90;99.90
40516;DHT22;26216;53.724;9.898;2023-04-01T05:11:20;10.80;99.90
40516;DHT22;26216;53.724;9.898;2023-04-01T05:13:47;10.80;99.90
40516;DHT22;26216;53.724;9.898;2023-04-01T05:16:19;10.70;99.90
40516;DHT22;26216;53.724;9.898;2023-04-01T05:19:06;10.70;99.90
40516;DHT22;26216;53.724;9.898;2023-04-01T05:21:40;10.60;99.90
40516;DHT22;26216;53.724;9.898;2023-04-01T05:24:08;10.50;99.90
40516;DHT22;26216;53.724;9.898;2023-04-01T05:27:06;10.50;99.90
40516;DHT22;26216;53.724;9.898;2023-04-01T05:29:32;10.50;99.90
40516;DHT22;26216;53.724;9.898;2023-04-01T05:32:08;10.40;99.90
40516;DHT22;26216;53.724;9.898;2023-04-01T05:34:40;10.30;99.90
40516;DHT22;26216;53.724;9.898;2023-04-01T05:37:08;10.30;99.90
40516;DHT22;26216;53.724;9.898;2023-04-01T05:39:39;10.20;99.90
40516;DHT22;26216;53.724;9.898;2023-04-01T05:42:07;10.20;99.90
40516;DHT22;26216;53.724;9.898;2023-04-01T05:44:38;10.20;99.90
40516;DHT22;26216;53.724;9.898;2023-04-01T05:47:07;10.20;99.90
40516;DHT22;26216;53.724;9.898;2023-04-01T05:49:43;10.10;99.90
40516;DHT22;26216;53.724;9.898;2023-04-01T05:52:25;10.10;99.90
40516;DHT22;26216;53.724;9.898;2023-04-01T05:55:14;10.10;99.90
40516;DHT22;26216;53.724;9.898;2023-04-01T05:57:40;10.00;99.90
40516;DHT22;26216;53.724;9.898;2023-04-01T06:00:12;10.00;99.90
40516;DHT22;26216;53.724;9.898;2023-04-01T06:03:07;9.90;99.90
40516;DHT22;26216;53.724;9.898;2023-04-01T06:05:56;10.00;99.90
40516;DHT22;26216;53.724;9.898;2023-04-01T06:08:31;9.90;99.90
40516;DHT22;26216;53.724;9.898;2023-04-01T06:11:18;9.90;99.90
40516;DHT22;26216;53.724;9.898;2023-04-01T06:17:00;9.90;99.90
40516;DHT22;26216;53.724;9.898;2023-04-01T06:26:05;9.80;99.90
40516;DHT22;26216;53.724;9.898;2023-04-01T06:28:57;9.80;99.90
40516;DHT22;26216;53.724;9.898;2023-04-01T06:37:46;9.70;99.90
40516;DHT22;26216;53.724;9.898;2023-04-01T06:43:25;9.70;99.90
40516;DHT22;26216;53.724;9.898;2023-04-01T06:49:07;9.60;99.90
40516;DHT22;26216;53.724;9.898;2023-04-01T06:52:01;9.70;99.90
40516;DHT22;26216;53.724;9.898;2023-04-01T06:54:40;9.60;99.90
40516;DHT22;26216;53.724;9.898;2023-04-01T06:57:38;9.70;99.90
40516;DHT22;26216;53.724;9.898;2023-04-01T07:00:30;9.70;99.90
40516;DHT22;26216;53.724;9.898;2023-04-01T07:03:32;9.60;99.90
40516;DHT22;26216;53.724;9.898;2023-04-01T07:06:22;9.60;99.90
40516;DHT22;26216;53.724;9.898;2023-04-01T07:09:02;9.60;99.90
40516;DHT22;26216;53.724;9.898;2023-04-01T07:15:37;9.50;99.90
40516;DHT22;26216;53.724;9.898;2023-04-01T07:18:50;9.50;99.90
40516;DHT22;26216;53.724;9.898;2023-04-01T07:21:47;9.40;99.90
40516;DHT22;26216;53.724;9.898;2023-04-01T07:24:43;9.40;99.90
40516;DHT22;26216;53.724;9.898;2023-04-01T07:27:30;9.40;99.90
40516;DHT22;26216;53.724;9.898;2023-04-01T07:30:14;9.40;99.90
40516;DHT22;26216;53.724;9.898;2023-04-01T07:33:04;9.40;99.90
40516;DHT22;26216;53.724;9.898;2023-04-01T07:36:16;9.40;99.90
40516;DHT22;26216;53.724;9.898;2023-04-01T07:45:47;9.40;99.90
40516;DHT22;26216;53.724;9.898;2023-04-01T07:48:44;9.40;99.90
40516;DHT22;26216;53.724;9.898;2023-04-01T07:51:32;9.40;99.90
40516;DHT22;26216;53.724;9.898;2023-04-01T07:54:42;9.30;99.90
40516;DHT22;26216;53.724;9.898;2023-04-01T08:00:52;9.30;99.90
40516;DHT22;26216;53.724;9.898;2023-04-01T08:07:10;9.30;99.90
40516;DHT22;26216;53.724;9.898;2023-04-01T08:10:18;9.30;99.90
40516;DHT22;26216;53.724;9.898;2023-04-01T08:16:20;9.30;99.90
40516;DHT22;26216;53.724;9.898;2023-04-01T08:19:31;9.30;99.90
40516;DHT22;26216;53.724;9.898;2023-04-01T08:22:45;9.20;99.90
40516;DHT22;26216;53.724;9.898;2023-04-01T08:25:34;9.20;99.90
40516;DHT22;26216;53.724;9.898;2023-04-01T08:28:44;9.30;99.90
40516;DHT22;26216;53.724;9.898;2023-04-01T08:31:41;9.20;99.90
40516;DHT22;26216;53.724;9.898;2023-04-01T08:34:36;9.20;99.90
40516;DHT22;26216;53.724;9.898;2023-04-01T08:37:25;9.30;99.90
40516;DHT22;26216;53.724;9.898;2023-04-01T08:43:25;9.30;99.90
40516;DHT22;26216;53.724;9.898;2023-04-01T08:49:38;9.20;99.90
40516;DHT22;26216;53.724;9.898;2023-04-01T08:52:35;9.30;99.90
40516;DHT22;26216;53.724;9.898;2023-04-01T08:55:44;9.30;99.90
40516;DHT22;26216;53.724;9.898;2023-04-01T09:00:48;9.30;99.90
40516;DHT22;26216;53.724;9.898;2023-04-01T09:06:45;9.40;99.90
40516;DHT22;26216;53.724;9.898;2023-04-01T09:12:59;9.40;99.90
40516;DHT22;26216;53.724;9.898;2023-04-01T09:15:55;9.40;99.90
40516;DHT22;26216;53.724;9.898;2023-04-01T09:21:22;9.40;99.90
40516;DHT22;26216;53.724;9.898;2023-04-01T09:26:56;9.60;99.90
40516;DHT22;26216;53.724;9.898;2023-04-01T09:29:42;9.60;99.90
40516;DHT22;26216;53.724;9.898;2023-04-01T09:32:29;9.60;99.90
40516;DHT22;26216;53.724;9.898;2023-04-01T09:37:53;9.70;99.90
40516;DHT22;26216;53.724;9.898;2023-04-01T09:46:12;9.80;99.90
40516;DHT22;26216;53.724;9.898;2023-04-01T09:52:24;9.90;99.90
40516;DHT22;26216;53.724;9.898;2023-04-01T10:06:27;9.90;99.90
40516;DHT22;26216;53.724;9.898;2023-04-01T10:15:31;10.00;99.90
40516;DHT22;26216;53.724;9.898;2023-04-01T10:18:05;10.00;99.90
40516;DHT22;26216;53.724;9.898;2023-04-01T10:23:51;10.10;99.90
40516;DHT22;26216;53.724;9.898;2023-04-01T10:27:09;10.10;99.90
40516;DHT22;26216;53.724;9.898;2023-04-01T10:29:55;10.10;99.90
40516;DHT22;26216;53.724;9.898;2023-04-01T10:38:39;10.20;99.90
40516;DHT22;26216;53.724;9.898;2023-04-01T11:24:32;9.90;99.90
40516;DHT22;26216;53.724;9.898;2023-04-01T11:30:06;9.80;99.90
40516;DHT22;26216;53.724;9.898;2023-04-01T11:32:52;9.70;99.90
40516;DHT22;26216;53.724;9.898;2023-04-01T11:52:39;9.70;99.90
40516;DHT22;26216;53.724;9.898;2023-04-01T11:57:51;9.60;99.90
40516;DHT22;26216;53.724;9.898;2023-04-01T12:03:36;9.60;99.90
40516;DHT22;26216;53.724;9.898;2023-04-01T12:06:25;9.60;99.90
40516;DHT22;26216;53.724;9.898;2023-04-01T12:09:09;9.60;99.90
40516;DHT22;26216;53.724;9.898;2023-04-01T12:15:10;9.50;99.90
40516;DHT22;26216;53.724;9.898;2023-04-01T12:17:26;9.50;99.90
40516;DHT22;26216;53.724;9.898;2023-04-01T12:28:37;9.30;99.90
40516;DHT22;26216;53.724;9.898;2023-04-01T12:31:19;9.30;99.90
40516;DHT22;26216;53.724;9.898;2023-04-01T12:40:00;9.20;99.90
40516;DHT22;26216;53.724;9.898;2023-04-01T12:45:29;9.20;99.90
40516;DHT22;26216;53.724;9.898;2023-04-01T12:51:11;9.10;99.90
40516;DHT22;26216;53.724;9.898;2023-04-01T12:54:47;9.10;99.90
40516;DHT22;26216;53.724;9.898;2023-04-01T12:57:27;9.10;99.90
40516;DHT22;26216;53.724;9.898;2023-04-01T13:14:17;9.00;99.90
40516;DHT22;26216;53.724;9.898;2023-04-01T13:20:29;9.00;99.90
40516;DHT22;26216;53.724;9.898;2023-04-01T13:23:07;9.00;99.90
40516;DHT22;26216;53.724;9.898;2023-04-01T13:25:51;9.00;99.90
40516;DHT22;26216;53.724;9.898;2023-04-01T13:28:25;9.00;99.90
40516;DHT22;26216;53.724;9.898;2023-04-01T13:31:20;8.90;99.90
40516;DHT22;26216;53.724;9.898;2023-04-01T13:37:29;8.90;99.90
40516;DHT22;26216;53.724;9.898;2023-04-01T13:40:26;8.90;99.90
40516;DHT22;26216;53.724;9.898;2023-04-01T13:43:00;8.90;99.90
40516;DHT22;26216;53.724;9.898;2023-04-01T13:51:18;8.90;99.90
40516;DHT22;26216;53.724;9.898;2023-04-01T13:57:12;8.90;99.90
40516;DHT22;26216;53.724;9.898;2023-04-01T14:02:52;8.80;99.90
40516;DHT22;26216;53.724;9.898;2023-04-01T14:08:14;8.80;99.90
40516;DHT22;26216;53.724;9.898;2023-04-01T14:22:42;8.60;99.90
40516;DHT22;26216;53.724;9.898;2023-04-01T14:28:10;8.60;99.90
40516;DHT22;26216;53.724;9.898;2023-04-01T14:31:18;8.60;99.90
40516;DHT22;26216;53.724;9.898;2023-04-01T14:36:37;8.60;99.90
40516;DHT22;26216;53.724;9.898;2023-04-01T14:42:04;8.60;99.90
40516;DHT22;26216;53.724;9.898;2023-04-01T14:50:14;8.60;99.90
40516;DHT22;26216;53.724;9.898;2023-04-01T14:52:57;8.60;99.90
40516;DHT22;26216;53.724;9.898;2023-04-01T14:55:32;8.60;99.90
40516;DHT22;26216;53.724;9.898;2023-04-01T14:58:11;8.50;99.90
40516;DHT22;26216;53.724;9.898;2023-04-01T15:03:37;8.50;99.90
40516;DHT22;26216;53.724;9.898;2023-04-01T15:12:21;8.40;99.90
40516;DHT22;26216;53.724;9.898;2023-04-01T15:18:56;8.40;99.90
40516;DHT22;26216;53.724;9.898;2023-04-01T15:21:25;8.40;99.90
40516;DHT22;26216;53.724;9.898;2023-04-01T15:26:40;8.30;99.90
40516;DHT22;26216;53.724;9.898;2023-04-01T15:29:19;8.30;99.90
40516;DHT22;26216;53.724;9.898;2023-04-01T15:32:16;8.30;99.90
40516;DHT22;26216;53.724;9.898;2023-04-01T15:51:48;8.20;99.90
40516;DHT22;26216;53.724;9.898;2023-04-01T15:54:45;8.10;99.90
40516;DHT22;26216;53.724;9.898;2023-04-01T16:11:39;8.00;99.90
40516;DHT22;26216;53.724;9.898;2023-04-01T16:17:48;8.00;99.90
40516;DHT22;26216;53.724;9.898;2023-04-01T16:20:22;8.00;99.90
40516;DHT22;26216;53.724;9.898;2023-04-01T16:23:03;7.90;99.90
40516;DHT22;26216;53.724;9.898;2023-04-01T16:28:24;7.90;99.90
40516;DHT22;26216;53.724;9.898;2023-04-01T16:36:43;7.90;99.90
40516;DHT22;26216;53.724;9.898;2023-04-01T16:42:26;7.80;99.90
40516;DHT22;26216;53.724;9.898;2023-04-01T16:47:36;7.70;99.90
40516;DHT22;26216;53.724;9.898;2023-04-01T16:50:22;7.70;99.90
40516;DHT22;26216;53.724;9.898;2023-04-01T16:53:01;7.70;99.90
40516;DHT22;26216;53.724;9.898;2023-04-01T16:55:41;7.70;99.90
40516;DHT22;26216;53.724;9.898;2023-04-01T16:58:10;7.70;99.90
40516;DHT22;26216;53.724;9.898;2023-04-01T17:00:52;7.70;99.90
40516;DHT22;26216;53.724;9.898;2023-04-01T17:03:58;7.70;99.90
40516;DHT22;26216;53.724;9.898;2023-04-01T17:06:43;7.60;99.90
40516;DHT22;26216;53.724;9.898;2023-04-01T17:20:09;7.60;99.80
40516;DHT22;26216;53.724;9.898;2023-04-01T17:25:48;7.60;99.70
40516;DHT22;26216;53.724;9.898;2023-04-01T17:31:51;7.50;99.40
40516;DHT22;26216;53.724;9.898;2023-04-01T17:37:14;7.40;99.10
40516;DHT22;26216;53.724;9.898;2023-04-01T17:42:37;7.40;99.00
40516;DHT22;26216;53.724;9.898;2023-04-01T17:45:22;7.30;98.80
40516;DHT22;26216;53.724;9.898;2023-04-01T17:51:00;7.20;99.10
40516;DHT22;26216;53.724;9.898;2023-04-01T17:54:04;7.20;98.90
40516;DHT22;26216;53.724;9.898;2023-04-01T17:57:01;7.20;99.10
40516;DHT22;26216;53.724;9.898;2023-04-01T17:59:36;7.10;99.00
40516;DHT22;26216;53.724;9.898;2023-04-01T18:14:28;7.00;98.80
40516;DHT22;26216;53.724;9.898;2023-04-01T18:20:19;6.90;98.40
40516;DHT22;26216;53.724;9.898;2023-04-01T18:25:36;6.90;98.60
40516;DHT22;26216;53.724;9.898;2023-04-01T18:28:24;6.90;98.70
40516;DHT22;26216;53.724;9.898;2023-04-01T18:39:38;6.80;98.30
40516;DHT22;26216;53.724;9.898;2023-04-01T18:42:41;6.80;98.20
40516;DHT22;26216;53.724;9.898;2023-04-01T18:45:22;6.80;97.90
40516;DHT22;26216;53.724;9.898;2023-04-01T18:51:19;6.70;98.10
40516;DHT22;26216;53.724;9.898;2023-04-01T18:59:20;6.60;97.70
40516;DHT22;26216;53.724;9.898;2023-04-01T19:05:04;6.60;97.70
40516;DHT22;26216;53.724;9.898;2023-04-01T19:07:42;6.60;97.80
40516;DHT22;26216;53.724;9.898;2023-04-01T19:19:29;6.60;97.90
40516;DHT22;26216;53.724;9.898;2023-04-01T19:22:14;6.60;97.80
40516;DHT22;26216;53.724;9.898;2023-04-01T19:27:44;6.60;97.90
40516;DHT22;26216;53.724;9.898;2023-04-01T19:30:45;6.60;97.70
40516;DHT22;26216;53.724;9.898;2023-04-01T19:36:53;6.50;97.20
40516;DHT22;26216;53.724;9.898;2023-04-01T19:42:22;6.50;97.20
40516;DHT22;26216;53.724;9.898;2023-04-01T19:53:40;6.40;97.00
40516;DHT22;26216;53.724;9.898;2023-04-01T19:56:20;6.40;96.90
40516;DHT22;26216;53.724;9.898;2023-04-01T19:59:01;6.40;96.70
40516;DHT22;26216;53.724;9.898;2023-04-01T20:01:41;6.30;96.60
40516;DHT22;26216;53.724;9.898;2023-04-01T20:04:22;6.30;96.50
40516;DHT22;26216;53.724;9.898;2023-04-01T20:07:13;6.20;96.30
40516;DHT22;26216;53.724;9.898;2023-04-01T20:13:19;6.10;96.40
40516;DHT22;26216;53.724;9.898;2023-04-01T20:15:36;6.00;96.00
40516;DHT22;26216;53.724;9.898;2023-04-01T20:18:24;5.90;96.30
40516;DHT22;26216;53.724;9.898;2023-04-01T20:23:56;5.80;96.40
40516;DHT22;26216;53.724;9.898;2023-04-01T20:26:35;5.80;96.60
40516;DHT22;26216;53.724;9.898;2023-04-01T20:29:35;5.80;96.60
40516;DHT22;26216;53.724;9.898;2023-04-01T20:35:08;5.70;96.60
40516;DHT22;26216;53.724;9.898;2023-04-01T20:38:34;5.60;96.70
40516;DHT22;26216;53.724;9.898;2023-04-01T20:40:52;5.60;96.40
40516;DHT22;26216;53.724;9.898;2023-04-01T20:43:40;5.60;96.60
40516;DHT22;26216;53.724;9.898;2023-04-01T20:52:17;5.50;96.70
40516;DHT22;26216;53.724;9.898;2023-04-01T20:57:55;5.40;96.50
40516;DHT22;26216;53.724;9.898;2023-04-01T21:01:00;5.40;96.70
40516;DHT22;26216;53.724;9.898;2023-04-01T21:09:46;5.30;96.80
40516;DHT22;26216;53.724;9.898;2023-04-01T21:23:01;5.10;97.00
40516;DHT22;26216;53.724;9.898;2023-04-01T21:43:05;5.00;97.00
40516;DHT22;26216;53.724;9.898;2023-04-01T21:51:28;4.90;97.00
40516;DHT22;26216;53.724;9.898;2023-04-01T21:54:22;4.90;97.10
40516;DHT22;26216;53.724;9.898;2023-04-01T21:59:57;4.90;97.10
40516;DHT22;26216;53.724;9.898;2023-04-01T22:05:13;4.80;97.10
40516;DHT22;26216;53.724;9.898;2023-04-01T22:08:09;4.80;97.10
40516;DHT22;26216;53.724;9.898;2023-04-01T22:11:01;4.80;97.10
40516;DHT22;26216;53.724;9.898;2023-04-01T22:17:28;4.80;97.10
40516;DHT22;26216;53.724;9.898;2023-04-01T22:25:05;4.70;97.20
40516;DHT22;26216;53.724;9.898;2023-04-01T22:27:47;4.70;97.20
40516;DHT22;26216;53.724;9.898;2023-04-01T22:30:27;4.70;97.10
40516;DHT22;26216;53.724;9.898;2023-04-01T22:43:58;4.60;97.10
40516;DHT22;26216;53.724;9.898;2023-04-01T22:46:43;4.60;97.00
40516;DHT22;26216;53.724;9.898;2023-04-01T22:54:50;4.50;97.10
40516;DHT22;26216;53.724;9.898;2023-04-01T23:00:35;4.50;97.20
40516;DHT22;26216;53.724;9.898;2023-04-01T23:05:51;4.50;97.20
40516;DHT22;26216;53.724;9.898;2023-04-01T23:10:58;4.50;97.10
40516;DHT22;26216;53.724;9.898;2023-04-01T23:13:29;4.50;96.90
40516;DHT22;26216;53.724;9.898;2023-04-01T23:15:58;4.50;96.90
40516;DHT22;26216;53.724;9.898;2023-04-01T23:18:25;4.50;96.90
40516;DHT22;26216;53.724;9.898;2023-04-01T23:21:18;4.40;97.00
40516;DHT22;26216;53.724;9.898;2023-04-01T23:29:14;4.40;96.70
40516;DHT22;26216;53.724;9.898;2023-04-01T23:31:42;4.40;96.80
40516;DHT22;26216;53.724;9.898;2023-04-01T23:36:46;4.40;96.70
40516;DHT22;26216;53.724;9.898;2023-04-01T23:39:32;4.40;96.70
40516;DHT22;26216;53.724;9.898;2023-04-01T23:42:04;4.40;96.70
40516;DHT22;26216;53.724;9.898;2023-04-01T23:44:32;4.40;96.70
40516;DHT22;26216;53.724;9.898;2023-04-01T23:46:59;4.40;96.70
40516;DHT22;26216;53.724;9.898;2023-04-01T23:49:54;4.40;96.70
40516;DHT22;26216;53.724;9.898;2023-04-01T23:52:24;4.40;96.90
40516;DHT22;26216;53.724;9.898;2023-04-01T23:54:57;4.40;96.80
40516;DHT22;26216;53.724;9.898;2023-04-01T23:57:30;4.40;96.70
